createdAt,value
2016-06-10T00:00:11.880Z,14.35
2016-06-10T00:01:11.898Z,14.37
2016-06-10T00:02:11.917Z,14.32
2016-06-10T00:03:11.920Z,14.33
2016-06-10T00:04:11.939Z,14.25
2016-06-10T00:05:11.958Z,14.2
2016-06-10T00:06:12.007Z,14.36
2016-06-10T00:07:11.996Z,14.4
2016-06-10T00:08:12.014Z,14.26
2016-06-10T00:09:12.173Z,14.28
2016-06-10T00:10:12.989Z,14.2
2016-06-10T00:11:12.086Z,14.04
2016-06-10T00:12:12.104Z,14.04
2016-06-10T00:13:12.123Z,14.04
2016-06-10T00:14:12.126Z,13.96
2016-06-10T00:15:12.145Z,13.87
2016-06-10T00:16:12.163Z,13.75
2016-06-10T00:17:12.183Z,13.77
2016-06-10T00:18:12.201Z,13.85
2016-06-10T00:19:12.219Z,13.87
2016-06-10T00:20:12.238Z,13.77
2016-06-10T00:21:12.101Z,13.9
2016-06-10T00:22:12.276Z,13.83
2016-06-10T00:23:12.294Z,13.83
2016-06-10T00:24:12.329Z,13.87
2016-06-10T00:25:12.691Z,13.79
2016-06-10T00:26:12.350Z,13.89
2016-06-10T00:27:12.369Z,13.87
2016-06-10T00:28:12.372Z,13.83
2016-06-10T00:29:12.406Z,13.89
2016-06-10T00:30:12.409Z,13.87
2016-06-10T00:31:12.428Z,13.74
2016-06-10T00:32:12.462Z,13.87
2016-06-10T00:33:12.465Z,13.85
2016-06-10T00:34:12.485Z,13.86
2016-06-10T00:35:12.503Z,13.85
2016-06-10T00:36:12.522Z,13.79
2016-06-10T00:37:12.556Z,13.78
2016-06-10T00:38:12.559Z,13.79
2016-06-10T00:39:12.578Z,13.83
2016-06-10T00:40:13.956Z,13.87
2016-06-10T00:41:12.600Z,13.85
2016-06-10T00:42:12.634Z,13.87
2016-06-10T00:43:12.653Z,13.71
2016-06-10T00:44:12.671Z,13.74
2016-06-10T00:45:12.674Z,13.68
2016-06-10T00:46:12.709Z,13.7
2016-06-10T00:47:12.728Z,13.7
2016-06-10T00:48:12.747Z,13.79
2016-06-10T00:49:12.764Z,13.7
2016-06-10T00:50:12.784Z,13.71
2016-06-10T00:51:12.787Z,13.74
2016-06-10T00:52:12.837Z,13.83
2016-06-10T00:53:12.824Z,13.7
2016-06-10T00:54:12.843Z,13.74
2016-06-10T00:55:13.643Z,13.74
2016-06-10T00:56:12.896Z,13.77
2016-06-10T00:57:12.914Z,13.67
2016-06-10T00:58:12.917Z,13.63
2016-06-10T00:59:12.937Z,13.77
2016-06-10T01:00:12.987Z,13.81
2016-06-10T01:01:12.990Z,13.68
2016-06-10T01:02:12.993Z,13.71
2016-06-10T01:03:13.011Z,13.81
2016-06-10T01:04:13.030Z,13.75
2016-06-10T01:05:13.049Z,13.75
2016-06-10T01:06:13.083Z,13.74
2016-06-10T01:07:13.086Z,13.79
2016-06-10T01:08:13.104Z,13.75
2016-06-10T01:09:13.123Z,13.77
2016-06-10T01:10:13.518Z,13.79
2016-06-10T01:11:13.161Z,13.75
2016-06-10T01:12:13.180Z,13.7
2016-06-10T01:13:13.199Z,13.7
2016-06-10T01:14:13.202Z,13.59
2016-06-10T01:15:13.236Z,13.3
2016-06-10T01:16:13.270Z,13.37
2016-06-10T01:17:13.273Z,13.39
2016-06-10T01:18:13.276Z,13.38
2016-06-10T01:19:13.295Z,13.42
2016-06-10T01:20:13.314Z,13.47
2016-06-10T01:21:13.332Z,13.42
2016-06-10T01:22:13.351Z,13.42
2016-06-10T01:23:13.385Z,13.52
2016-06-10T01:24:13.389Z,13.49
2016-06-10T01:25:13.110Z,13.44
2016-06-10T01:26:13.426Z,13.44
2016-06-10T01:27:13.459Z,13.44
2016-06-10T01:28:13.448Z,13.46
2016-06-10T01:29:13.481Z,13.46
2016-06-10T01:30:13.485Z,13.44
2016-06-10T01:31:13.518Z,13.53
2016-06-10T01:32:13.538Z,13.42
2016-06-10T01:33:13.556Z,13.46
2016-06-10T01:34:13.575Z,13.44
2016-06-10T01:35:13.594Z,13.44
2016-06-10T01:36:13.629Z,13.54
2016-06-10T01:37:13.615Z,13.56
2016-06-10T01:38:13.634Z,13.44
2016-06-10T01:39:13.669Z,13.52
2016-06-10T01:40:14.203Z,13.42
2016-06-10T01:41:13.690Z,13.56
2016-06-10T01:42:13.709Z,13.46
2016-06-10T01:43:13.728Z,13.54
2016-06-10T01:44:13.762Z,13.54
2016-06-10T01:45:13.765Z,13.53
2016-06-10T01:46:13.768Z,13.49
2016-06-10T01:47:13.818Z,13.59
2016-06-10T01:48:13.821Z,13.54
2016-06-10T01:49:13.840Z,13.53
2016-06-10T01:50:13.843Z,13.56
2016-06-10T01:51:13.878Z,13.6
2016-06-10T01:52:13.897Z,13.65
2016-06-10T01:53:13.899Z,13.59
2016-06-10T01:54:13.934Z,13.53
2016-06-10T01:55:13.953Z,13.54
2016-06-10T01:56:13.970Z,13.62
2016-06-10T01:57:13.974Z,13.56
2016-06-10T01:58:13.993Z,13.56
2016-06-10T01:59:14.011Z,13.5
2016-06-10T02:00:14.046Z,13.53
2016-06-10T02:01:14.049Z,13.52
2016-06-10T02:02:14.067Z,13.54
2016-06-10T02:03:14.117Z,13.42
2016-06-10T02:04:14.105Z,13.46
2016-06-10T02:05:14.124Z,13.37
2016-06-10T02:06:14.142Z,13.23
2016-06-10T02:07:14.142Z,13.28
2016-06-10T02:08:14.180Z,13.23
2016-06-10T02:09:14.198Z,13.33
2016-06-10T02:10:14.483Z,13.23
2016-06-10T02:11:14.266Z,13.3
2016-06-10T02:12:14.251Z,13.28
2016-06-10T02:13:14.270Z,13.19
2016-06-10T02:14:14.273Z,13.25
2016-06-10T02:15:14.307Z,13.28
2016-06-10T02:16:14.310Z,13.31
2016-06-10T02:17:14.345Z,13.19
2016-06-10T02:18:14.349Z,13.19
2016-06-10T02:19:14.398Z,13.27
2016-06-10T02:20:14.401Z,13.25
2016-06-10T02:21:14.404Z,13.15
2016-06-10T02:22:14.407Z,13.16
2016-06-10T02:23:14.442Z,13.13
2016-06-10T02:24:14.475Z,12.97
2016-06-10T02:25:15.310Z,12.91
2016-06-10T02:26:14.498Z,12.94
2016-06-10T02:27:14.516Z,12.79
2016-06-10T02:28:14.535Z,12.82
2016-06-10T02:29:14.538Z,12.72
2016-06-10T02:30:14.572Z,12.7
2016-06-10T02:31:14.592Z,12.79
2016-06-10T02:32:14.625Z,12.78
2016-06-10T02:33:14.628Z,12.78
2016-06-10T02:34:14.632Z,12.85
2016-06-10T02:35:14.651Z,12.83
2016-06-10T02:36:14.668Z,12.95
2016-06-10T02:37:14.687Z,12.95
2016-06-10T02:38:14.723Z,12.82
2016-06-10T02:39:14.779Z,12.85
2016-06-10T02:40:16.048Z,12.86
2016-06-10T02:41:14.891Z,12.93
2016-06-10T02:42:14.979Z,12.9
2016-06-10T02:43:14.995Z,12.83
2016-06-10T02:44:15.026Z,12.91
2016-06-10T02:45:15.043Z,12.91
2016-06-10T02:46:15.092Z,12.94
2016-06-10T02:47:15.109Z,12.9
2016-06-10T02:48:15.136Z,12.87
2016-06-10T02:49:15.160Z,12.95
2016-06-10T02:50:15.184Z,12.9
2016-06-10T02:51:15.207Z,12.86
2016-06-10T02:52:15.231Z,12.97
2016-06-10T02:53:15.252Z,12.95
2016-06-10T02:54:15.257Z,12.97
2016-06-10T02:55:15.606Z,12.95
2016-06-10T02:56:15.658Z,13
2016-06-10T02:57:15.319Z,12.93
2016-06-10T02:58:15.355Z,12.86
2016-06-10T02:59:15.374Z,12.9
2016-06-10T03:00:15.394Z,12.75
2016-06-10T03:01:15.413Z,12.8
2016-06-10T03:02:15.417Z,12.79
2016-06-10T03:03:15.468Z,12.73
2016-06-10T03:04:15.455Z,12.79
2016-06-10T03:05:15.489Z,12.79
2016-06-10T03:06:15.477Z,12.87
2016-06-10T03:07:15.510Z,12.86
2016-06-10T03:08:15.546Z,12.86
2016-06-10T03:09:15.392Z,12.93
2016-06-10T03:10:15.489Z,12.9
2016-06-10T03:11:15.586Z,12.9
2016-06-10T03:12:15.589Z,12.87
2016-06-10T03:13:15.608Z,12.85
2016-06-10T03:14:15.642Z,12.76
2016-06-10T03:15:15.490Z,12.83
2016-06-10T03:16:15.679Z,12.86
2016-06-10T03:17:15.682Z,12.86
2016-06-10T03:18:15.530Z,12.85
2016-06-10T03:19:15.719Z,12.76
2016-06-10T03:20:15.738Z,12.82
2016-06-10T03:21:15.757Z,12.75
2016-06-10T03:22:15.776Z,12.7
2016-06-10T03:23:15.795Z,12.68
2016-06-10T03:24:15.812Z,12.6
2016-06-10T03:25:16.176Z,12.61
2016-06-10T03:26:15.694Z,12.57
2016-06-10T03:27:15.854Z,12.54
2016-06-10T03:28:15.872Z,12.54
2016-06-10T03:29:15.891Z,12.58
2016-06-10T03:30:15.925Z,12.6
2016-06-10T03:31:15.929Z,12.61
2016-06-10T03:32:15.947Z,12.55
2016-06-10T03:33:15.950Z,12.54
2016-06-10T03:34:15.969Z,12.55
2016-06-10T03:35:15.987Z,12.54
2016-06-10T03:36:16.021Z,12.53
2016-06-10T03:37:16.025Z,12.58
2016-06-10T03:38:16.060Z,12.53
2016-06-10T03:39:16.063Z,12.62
2016-06-10T03:40:16.097Z,12.68
2016-06-10T03:41:16.319Z,12.54
2016-06-10T03:42:16.118Z,12.54
2016-06-10T03:43:16.138Z,12.45
2016-06-10T03:44:16.156Z,12.4
2016-06-10T03:45:16.175Z,12.27
2016-06-10T03:46:16.210Z,12.21
2016-06-10T03:47:16.196Z,12.21
2016-06-10T03:48:16.216Z,12.15
2016-06-10T03:49:16.234Z,12.17
2016-06-10T03:50:16.253Z,12.18
2016-06-10T03:51:16.271Z,12.07
2016-06-10T03:52:16.290Z,12.06
2016-06-10T03:53:16.309Z,12.07
2016-06-10T03:54:16.327Z,12.07
2016-06-10T03:55:16.377Z,12.12
2016-06-10T03:56:16.521Z,12.07
2016-06-10T03:57:16.384Z,12.1
2016-06-10T03:58:16.387Z,12.18
2016-06-10T03:59:16.406Z,12.2
2016-06-10T04:00:16.439Z,12.22
2016-06-10T04:01:16.443Z,12.2
2016-06-10T04:02:16.477Z,12.31
2016-06-10T04:03:16.479Z,12.25
2016-06-10T04:04:16.515Z,12.22
2016-06-10T04:05:16.518Z,12.24
2016-06-10T04:06:16.552Z,12.13
2016-06-10T04:07:16.570Z,12.28
2016-06-10T04:08:16.573Z,12.24
2016-06-10T04:09:16.592Z,12.31
2016-06-10T04:10:16.611Z,12.2
2016-06-10T04:11:16.629Z,12.25
2016-06-10T04:12:16.648Z,12.24
2016-06-10T04:13:16.652Z,12.25
2016-06-10T04:14:16.686Z,12.31
2016-06-10T04:15:16.704Z,12.27
2016-06-10T04:16:16.708Z,12.4
2016-06-10T04:17:16.741Z,12.29
2016-06-10T04:18:16.761Z,12.39
2016-06-10T04:19:16.779Z,12.35
2016-06-10T04:20:16.782Z,12.39
2016-06-10T04:21:16.801Z,12.42
2016-06-10T04:22:16.821Z,12.35
2016-06-10T04:23:16.838Z,12.35
2016-06-10T04:24:16.842Z,12.36
2016-06-10T04:25:16.860Z,12.43
2016-06-10T04:26:17.192Z,12.35
2016-06-10T04:27:16.914Z,12.32
2016-06-10T04:28:16.932Z,12.4
2016-06-10T04:29:16.935Z,12.42
2016-06-10T04:30:16.970Z,12.39
2016-06-10T04:31:16.973Z,12.39
2016-06-10T04:32:17.007Z,12.4
2016-06-10T04:33:17.010Z,12.54
2016-06-10T04:34:17.028Z,12.57
2016-06-10T04:35:17.078Z,12.65
2016-06-10T04:36:17.081Z,12.62
2016-06-10T04:37:16.928Z,12.76
2016-06-10T04:38:17.087Z,12.57
2016-06-10T04:39:17.122Z,12.7
2016-06-10T04:40:17.125Z,12.73
2016-06-10T04:41:17.721Z,12.78
2016-06-10T04:42:17.147Z,12.78
2016-06-10T04:43:17.227Z,12.73
2016-06-10T04:44:17.200Z,12.79
2016-06-10T04:45:17.234Z,12.83
2016-06-10T04:46:17.222Z,12.82
2016-06-10T04:47:17.287Z,12.83
2016-06-10T04:48:17.275Z,12.67
2016-06-10T04:49:17.356Z,12.67
2016-06-10T04:50:17.296Z,12.75
2016-06-10T04:51:17.362Z,12.64
2016-06-10T04:52:17.349Z,12.68
2016-06-10T04:53:17.416Z,12.6
2016-06-10T04:54:17.371Z,12.62
2016-06-10T04:55:17.437Z,12.67
2016-06-10T04:56:17.439Z,12.75
2016-06-10T04:57:17.474Z,12.82
2016-06-10T04:58:17.446Z,12.95
2016-06-10T04:59:17.465Z,13.01
2016-06-10T05:00:17.499Z,12.97
2016-06-10T05:01:17.502Z,13.01
2016-06-10T05:02:17.505Z,13
2016-06-10T05:03:17.540Z,13.01
2016-06-10T05:04:17.558Z,12.94
2016-06-10T05:05:17.577Z,12.94
2016-06-10T05:06:17.595Z,12.95
2016-06-10T05:07:17.615Z,13
2016-06-10T05:08:17.617Z,12.98
2016-06-10T05:09:17.635Z,12.94
2016-06-10T05:10:17.655Z,12.98
2016-06-10T05:11:17.767Z,13.04
2016-06-10T05:12:17.691Z,12.97
2016-06-10T05:13:17.711Z,12.95
2016-06-10T05:14:17.730Z,12.87
2016-06-10T05:15:17.764Z,12.87
2016-06-10T05:16:17.782Z,12.9
2016-06-10T05:17:17.801Z,12.93
2016-06-10T05:18:17.820Z,12.95
2016-06-10T05:19:17.823Z,12.87
2016-06-10T05:20:17.842Z,12.87
2016-06-10T05:21:17.845Z,12.85
2016-06-10T05:22:17.863Z,12.86
2016-06-10T05:23:17.898Z,12.93
2016-06-10T05:24:17.901Z,12.95
2016-06-10T05:25:17.935Z,12.95
2016-06-10T05:26:18.079Z,13.08
2016-06-10T05:27:17.973Z,13.11
2016-06-10T05:28:17.819Z,13.09
2016-06-10T05:29:17.994Z,13.16
2016-06-10T05:30:18.013Z,13.18
2016-06-10T05:31:18.032Z,13.18
2016-06-10T05:32:18.066Z,13.41
2016-06-10T05:33:18.069Z,13.39
2016-06-10T05:34:18.087Z,13.39
2016-06-10T05:35:18.107Z,13.23
2016-06-10T05:36:32.191Z,13.28
2016-06-10T05:37:18.144Z,13.28
2016-06-10T05:38:18.163Z,13.2
2016-06-10T05:39:18.182Z,13.2
2016-06-10T05:40:18.200Z,13.35
2016-06-10T05:41:19.734Z,13.2
2016-06-10T05:42:18.237Z,13.25
2016-06-10T05:43:18.256Z,13.23
2016-06-10T05:44:18.260Z,13.27
2016-06-10T05:45:18.278Z,13.22
2016-06-10T05:46:18.312Z,13.3
2016-06-10T05:47:18.331Z,13.25
2016-06-10T05:48:18.193Z,13.41
2016-06-10T05:49:18.197Z,13.28
2016-06-10T05:50:18.387Z,13.27
2016-06-10T05:51:18.390Z,13.33
2016-06-10T05:52:18.424Z,13.3
2016-06-10T05:53:18.428Z,13.09
2016-06-10T05:54:18.462Z,13.15
2016-06-10T05:55:18.465Z,13.3
2016-06-10T05:56:18.749Z,13.3
2016-06-10T05:57:18.502Z,13.38
2016-06-10T05:58:18.521Z,13.5
2016-06-10T05:59:18.540Z,13.68
2016-06-10T06:00:18.559Z,13.7
2016-06-10T06:01:18.577Z,13.81
2016-06-10T06:02:18.595Z,13.79
2016-06-10T06:03:18.598Z,13.86
2016-06-10T06:04:18.634Z,13.95
2016-06-10T06:05:18.637Z,13.99
2016-06-10T06:06:18.670Z,14.08
2016-06-10T06:07:18.674Z,14.17
2016-06-10T06:08:18.724Z,14.17
2016-06-10T06:09:18.570Z,14.07
2016-06-10T06:10:18.730Z,14.12
2016-06-10T06:11:18.764Z,14.17
2016-06-10T06:12:18.783Z,14.15
2016-06-10T06:13:18.786Z,14.07
2016-06-10T06:14:18.805Z,14.04
2016-06-10T06:15:18.838Z,14.03
2016-06-10T06:16:18.842Z,13.96
2016-06-10T06:17:18.861Z,13.97
2016-06-10T06:18:18.895Z,14.05
2016-06-10T06:19:18.914Z,14.17
2016-06-10T06:20:18.933Z,14.29
2016-06-10T06:21:18.936Z,14.35
2016-06-10T06:22:18.954Z,14.23
2016-06-10T06:23:18.973Z,14.25
2016-06-10T06:24:18.991Z,14.12
2016-06-10T06:25:19.010Z,14.03
2016-06-10T06:26:18.888Z,14.04
2016-06-10T06:27:19.032Z,14.08
2016-06-10T06:28:19.067Z,14.18
2016-06-10T06:29:19.086Z,14.25
2016-06-10T06:30:19.103Z,14.35
2016-06-10T06:31:19.137Z,14.33
2016-06-10T06:32:19.141Z,14.43
2016-06-10T06:33:19.160Z,14.3
2016-06-10T06:34:19.179Z,14.2
2016-06-10T06:35:19.197Z,14.18
2016-06-10T06:36:19.216Z,14.07
2016-06-10T06:37:19.235Z,14.08
2016-06-10T06:38:19.253Z,14.17
2016-06-10T06:39:19.272Z,14.22
2016-06-10T06:40:19.290Z,14.2
2016-06-10T06:41:19.341Z,14.32
2016-06-10T06:42:19.343Z,14.37
2016-06-10T06:43:19.346Z,14.51
2016-06-10T06:44:19.366Z,14.68
2016-06-10T06:45:19.385Z,14.89
2016-06-10T06:46:19.388Z,15.14
2016-06-10T06:47:19.422Z,15.44
2016-06-10T06:48:19.440Z,15.67
2016-06-10T06:49:19.459Z,15.7
2016-06-10T06:50:19.462Z,15.76
2016-06-10T06:51:19.496Z,15.91
2016-06-10T06:52:19.516Z,15.94
2016-06-10T06:53:19.534Z,15.94
2016-06-10T06:54:19.568Z,16
2016-06-10T06:55:19.586Z,16.01
2016-06-10T06:56:19.605Z,15.88
2016-06-10T06:57:19.625Z,15.79
2016-06-10T06:58:19.643Z,15.79
2016-06-10T06:59:19.662Z,15.68
2016-06-10T07:00:19.695Z,15.58
2016-06-10T07:01:19.715Z,15.43
2016-06-10T07:02:19.702Z,15.46
2016-06-10T07:03:19.768Z,15.4
2016-06-10T07:04:19.739Z,15.49
2016-06-10T07:05:19.775Z,15.43
2016-06-10T07:06:19.777Z,15.61
2016-06-10T07:07:19.827Z,15.79
2016-06-10T07:08:19.846Z,15.79
2016-06-10T07:09:19.834Z,15.92
2016-06-10T07:10:19.852Z,15.95
2016-06-10T07:11:20.667Z,15.98
2016-06-10T07:12:20.249Z,15.97
2016-06-10T07:13:19.908Z,15.86
2016-06-10T07:14:19.927Z,15.75
2016-06-10T07:15:19.945Z,15.79
2016-06-10T07:16:19.980Z,15.59
2016-06-10T07:17:19.983Z,15.58
2016-06-10T07:18:20.017Z,15.62
2016-06-10T07:19:19.879Z,15.65
2016-06-10T07:20:20.054Z,15.77
2016-06-10T07:21:20.058Z,16.02
2016-06-10T07:22:20.091Z,15.95
2016-06-10T07:23:20.110Z,16.04
2016-06-10T07:24:20.332Z,15.95
2016-06-10T07:25:21.445Z,16.13
2016-06-10T07:26:20.151Z,16.21
2016-06-10T07:27:20.170Z,16.17
2016-06-10T07:28:20.204Z,16.13
2016-06-10T07:29:20.223Z,16.04
2016-06-10T07:30:20.257Z,15.97
2016-06-10T07:31:20.277Z,15.9
2016-06-10T07:32:20.279Z,15.94
2016-06-10T07:33:20.313Z,15.98
2016-06-10T07:34:20.332Z,15.94
2016-06-10T07:35:20.350Z,15.94
2016-06-10T07:36:20.353Z,16.04
2016-06-10T07:37:20.419Z,15.97
2016-06-10T07:38:20.391Z,15.95
2016-06-10T07:39:20.660Z,16.16
2016-06-10T07:40:20.429Z,16.36
2016-06-10T07:41:20.463Z,16.43
2016-06-10T07:42:20.481Z,16.49
2016-06-10T07:43:20.563Z,16.68
2016-06-10T07:44:20.551Z,16.61
2016-06-10T07:45:20.428Z,16.68
2016-06-10T07:46:20.665Z,16.89
2016-06-10T07:47:20.653Z,16.97
2016-06-10T07:48:20.609Z,17.11
2016-06-10T07:49:20.644Z,17.08
2016-06-10T07:50:20.630Z,16.93
2016-06-10T07:51:20.713Z,16.93
2016-06-10T07:52:20.683Z,17.14
2016-06-10T07:53:20.749Z,17.26
2016-06-10T07:54:20.706Z,17.27
2016-06-10T07:55:20.756Z,17.26
2016-06-10T07:56:20.962Z,17.39
2016-06-10T07:57:20.824Z,17.39
2016-06-10T07:58:20.797Z,17.26
2016-06-10T07:59:20.815Z,17.14
2016-06-10T08:00:20.849Z,17.04
2016-06-10T08:01:20.853Z,17.02
2016-06-10T08:02:20.872Z,17.05
2016-06-10T08:03:20.905Z,17.22
2016-06-10T08:04:20.909Z,17.33
2016-06-10T08:05:20.927Z,17.42
2016-06-10T08:06:20.946Z,17.6
2016-06-10T08:07:20.980Z,17.46
2016-06-10T08:08:20.983Z,17.48
2016-06-10T08:09:21.799Z,17.45
2016-06-10T08:10:21.036Z,17.56
2016-06-10T08:11:21.055Z,17.59
2016-06-10T08:12:21.058Z,17.68
2016-06-10T08:13:21.077Z,17.8
2016-06-10T08:14:20.955Z,18.15
2016-06-10T08:15:21.129Z,18.13
2016-06-10T08:16:21.149Z,18.1
2016-06-10T08:17:21.027Z,18.1
2016-06-10T08:18:21.201Z,18.04
2016-06-10T08:19:21.205Z,17.94
2016-06-10T08:20:21.239Z,17.97
2016-06-10T08:21:21.086Z,18.15
2016-06-10T08:22:21.276Z,18.18
2016-06-10T08:23:21.279Z,18.13
2016-06-10T08:24:22.032Z,18.01
2016-06-10T08:25:21.332Z,17.9
2016-06-10T08:26:21.351Z,17.83
2016-06-10T08:27:21.369Z,17.78
2016-06-10T08:28:21.388Z,17.82
2016-06-10T08:29:21.422Z,17.95
2016-06-10T08:30:21.441Z,18.18
2016-06-10T08:31:21.460Z,18.41
2016-06-10T08:32:21.464Z,18.38
2016-06-10T08:33:21.325Z,18.28
2016-06-10T08:34:21.531Z,18.2
2016-06-10T08:35:21.534Z,18.16
2016-06-10T08:36:21.554Z,18.2
2016-06-10T08:37:21.572Z,18.11
2016-06-10T08:38:21.607Z,18.04
2016-06-10T08:39:21.641Z,18.07
2016-06-10T08:40:21.659Z,17.92
2016-06-10T08:41:21.694Z,17.86
2016-06-10T08:42:21.745Z,17.71
2016-06-10T08:43:21.747Z,17.72
2016-06-10T08:44:21.562Z,17.68
2016-06-10T08:45:21.784Z,17.6
2016-06-10T08:46:21.787Z,17.67
2016-06-10T08:47:21.822Z,17.57
2016-06-10T08:48:21.794Z,17.38
2016-06-10T08:49:21.906Z,17.33
2016-06-10T08:50:21.847Z,17.38
2016-06-10T08:51:21.865Z,17.44
2016-06-10T08:52:21.868Z,17.49
2016-06-10T08:53:21.871Z,17.49
2016-06-10T08:54:21.906Z,17.44
2016-06-10T08:55:21.941Z,17.51
2016-06-10T08:56:23.163Z,17.41
2016-06-10T08:57:21.836Z,17.51
2016-06-10T08:58:21.997Z,17.74
2016-06-10T08:59:22.031Z,17.7
2016-06-10T09:00:22.034Z,17.7
2016-06-10T09:01:22.068Z,17.67
2016-06-10T09:02:22.087Z,17.7
2016-06-10T09:03:22.090Z,17.71
2016-06-10T09:04:22.124Z,17.68
2016-06-10T09:05:22.127Z,17.54
2016-06-10T09:06:22.178Z,17.65
2016-06-10T09:07:22.181Z,17.68
2016-06-10T09:08:22.199Z,17.68
2016-06-10T09:09:22.217Z,17.86
2016-06-10T09:10:22.236Z,17.98
2016-06-10T09:11:22.239Z,18.23
2016-06-10T09:12:23.054Z,18.37
2016-06-10T09:13:22.292Z,18.56
2016-06-10T09:14:22.311Z,18.71
2016-06-10T09:15:22.330Z,18.78
2016-06-10T09:16:22.191Z,18.8
2016-06-10T09:17:22.383Z,18.71
2016-06-10T09:18:22.386Z,18.58
2016-06-10T09:19:22.420Z,18.65
2016-06-10T09:20:22.439Z,18.65
2016-06-10T09:21:22.457Z,18.66
2016-06-10T09:22:22.476Z,18.53
2016-06-10T09:23:22.495Z,18.5
2016-06-10T09:24:22.514Z,18.41
2016-06-10T09:25:22.533Z,18.44
2016-06-10T09:26:22.567Z,18.77
2016-06-10T09:27:22.586Z,18.99
2016-06-10T09:28:22.651Z,19.16
2016-06-10T09:29:22.653Z,19.26
2016-06-10T09:30:22.642Z,19.47
2016-06-10T09:31:22.660Z,19.36
2016-06-10T09:32:22.679Z,19.34
2016-06-10T09:33:22.714Z,19.33
2016-06-10T09:34:22.716Z,19.29
2016-06-10T09:35:22.735Z,19.19
2016-06-10T09:36:22.769Z,19.31
2016-06-10T09:37:22.788Z,19.36
2016-06-10T09:38:22.806Z,19.54
2016-06-10T09:39:22.950Z,19.56
2016-06-10T09:40:22.688Z,19.45
2016-06-10T09:41:22.910Z,19.36
2016-06-10T09:42:23.444Z,19.18
2016-06-10T09:43:22.932Z,19.14
2016-06-10T09:44:22.950Z,19.08
2016-06-10T09:45:23.031Z,19.09
2016-06-10T09:46:22.987Z,19.14
2016-06-10T09:47:22.834Z,19.36
2016-06-10T09:48:23.009Z,19.41
2016-06-10T09:49:23.044Z,19.55
2016-06-10T09:50:23.032Z,19.48
2016-06-10T09:51:23.096Z,19.16
2016-06-10T09:52:23.100Z,18.99
2016-06-10T09:53:23.150Z,19.02
2016-06-10T09:54:23.137Z,19.04
2016-06-10T09:55:23.156Z,19.07
2016-06-10T09:56:23.175Z,19.16
2016-06-10T09:57:23.178Z,19.12
2016-06-10T09:58:23.431Z,19.15
2016-06-10T09:59:23.074Z,19.02
2016-06-10T10:00:23.265Z,19.12
2016-06-10T10:01:23.283Z,19.16
2016-06-10T10:02:23.286Z,19.22
2016-06-10T10:03:23.336Z,19.34
2016-06-10T10:04:23.340Z,19.16
2016-06-10T10:05:23.359Z,19.14
2016-06-10T10:06:23.378Z,19.12
2016-06-10T10:07:23.396Z,19.04
2016-06-10T10:08:23.430Z,19.04
2016-06-10T10:09:23.433Z,18.95
2016-06-10T10:10:23.468Z,19.07
2016-06-10T10:11:23.486Z,18.93
2016-06-10T10:12:23.771Z,18.89
2016-06-10T10:13:23.524Z,19.04
2016-06-10T10:14:23.542Z,19.33
2016-06-10T10:15:23.561Z,19.48
2016-06-10T10:16:23.580Z,19.56
2016-06-10T10:17:23.457Z,19.56
2016-06-10T10:18:23.632Z,19.48
2016-06-10T10:19:23.651Z,19.47
2016-06-10T10:20:23.671Z,19.37
2016-06-10T10:21:23.533Z,19.44
2016-06-10T10:22:23.707Z,19.36
2016-06-10T10:23:23.805Z,19.34
2016-06-10T10:24:23.745Z,19.44
2016-06-10T10:25:23.811Z,19.54
2016-06-10T10:26:23.626Z,19.55
2016-06-10T10:27:23.832Z,19.73
2016-06-10T10:28:23.820Z,19.96
2016-06-10T10:29:23.916Z,20.22
2016-06-10T10:30:23.919Z,20.29
2016-06-10T10:31:24.016Z,20.37
2016-06-10T10:32:23.957Z,20.37
2016-06-10T10:33:24.053Z,20.4
2016-06-10T10:34:23.854Z,20.56
2016-06-10T10:35:24.107Z,20.7
2016-06-10T10:36:24.063Z,20.72
2016-06-10T10:37:24.066Z,20.84
2016-06-10T10:38:24.054Z,20.96
2016-06-10T10:39:24.119Z,20.8
2016-06-10T10:40:23.950Z,20.77
2016-06-10T10:41:24.157Z,20.65
2016-06-10T10:42:24.379Z,20.7
2016-06-10T10:43:24.070Z,20.69
2016-06-10T10:44:24.181Z,20.55
2016-06-10T10:45:24.216Z,20.56
2016-06-10T10:46:24.219Z,20.5
2016-06-10T10:47:24.112Z,20.44
2016-06-10T10:48:24.256Z,20.34
2016-06-10T10:49:24.274Z,20.21
2016-06-10T10:50:24.294Z,20.1
2016-06-10T10:51:24.328Z,19.99
2016-06-10T10:52:24.331Z,20.04
2016-06-10T10:53:24.209Z,20.11
2016-06-10T10:54:24.384Z,20.19
2016-06-10T10:55:24.403Z,20.21
2016-06-10T10:56:24.282Z,20.4
2016-06-10T10:57:24.847Z,20.37
2016-06-10T10:58:24.334Z,20.28
2016-06-10T10:59:24.353Z,20.25
2016-06-10T11:00:24.511Z,20.26
2016-06-10T11:01:24.514Z,20.31
2016-06-10T11:02:24.564Z,20.47
2016-06-10T11:03:24.553Z,20.32
2016-06-10T11:04:24.602Z,20.28
2016-06-10T11:05:24.605Z,20.4
2016-06-10T11:06:24.624Z,20.55
2016-06-10T11:07:24.486Z,20.67
2016-06-10T11:08:24.661Z,20.87
2016-06-10T11:09:24.696Z,20.78
2016-06-10T11:10:24.714Z,20.74
2016-06-10T11:11:24.734Z,20.63
2016-06-10T11:12:24.955Z,20.85
2016-06-10T11:13:24.630Z,21.03
2016-06-10T11:14:24.804Z,21.02
2016-06-10T11:15:24.667Z,20.87
2016-06-10T11:16:24.686Z,21
2016-06-10T11:17:24.767Z,21.21
2016-06-10T11:18:24.770Z,21.39
2016-06-10T11:19:24.930Z,21.32
2016-06-10T11:20:24.933Z,21.14
2016-06-10T11:21:24.952Z,20.93
2016-06-10T11:22:24.971Z,20.78
2016-06-10T11:23:24.989Z,20.81
2016-06-10T11:24:25.102Z,20.88
2016-06-10T11:25:25.104Z,20.93
2016-06-10T11:26:25.139Z,21
2016-06-10T11:27:25.783Z,20.85
2016-06-10T11:28:25.270Z,20.9
2016-06-10T11:29:25.023Z,20.85
2016-06-10T11:30:25.213Z,20.85
2016-06-10T11:31:25.217Z,20.82
2016-06-10T11:32:25.220Z,20.69
2016-06-10T11:33:25.238Z,20.77
2016-06-10T11:34:25.241Z,20.87
2016-06-10T11:35:31.526Z,20.9
2016-06-10T11:36:25.279Z,20.97
2016-06-10T11:37:25.172Z,21.24
2016-06-10T11:38:25.316Z,21.25
2016-06-10T11:39:25.320Z,21.2
2016-06-10T11:40:25.354Z,21.3
2016-06-10T11:41:25.372Z,21.51
2016-06-10T11:42:26.062Z,21.52
2016-06-10T11:43:25.144Z,21.57
2016-06-10T11:44:25.459Z,21.72
2016-06-10T11:45:25.517Z,21.8
2016-06-10T11:46:25.449Z,21.85
2016-06-10T11:47:25.649Z,21.76
2016-06-10T11:48:25.706Z,21.67
2016-06-10T11:49:25.754Z,21.72
2016-06-10T11:50:25.788Z,21.69
2016-06-10T11:51:25.805Z,21.76
2016-06-10T11:52:25.869Z,21.73
2016-06-10T11:53:25.902Z,21.77
2016-06-10T11:54:25.931Z,21.64
2016-06-10T11:55:25.954Z,21.62
2016-06-10T11:56:25.978Z,21.55
2016-06-10T11:57:25.862Z,21.58
2016-06-10T11:58:26.698Z,21.45
2016-06-10T11:59:26.049Z,21.33
2016-06-10T12:00:26.068Z,21.37
2016-06-10T12:01:26.105Z,21.32
2016-06-10T12:02:26.126Z,21.3
2016-06-10T12:03:26.147Z,21.4
2016-06-10T12:04:26.182Z,21.5
2016-06-10T12:05:26.185Z,21.37
2016-06-10T12:06:26.220Z,21.42
2016-06-10T12:07:26.239Z,21.54
2016-06-10T12:08:26.259Z,21.57
2016-06-10T12:09:26.277Z,21.75
2016-06-10T12:10:26.312Z,22.02
2016-06-10T12:11:26.378Z,22.32
2016-06-10T12:12:27.210Z,22.44
2016-06-10T12:13:26.385Z,22.59
2016-06-10T12:14:26.405Z,22.6
2016-06-10T12:15:26.407Z,22.8
2016-06-10T12:16:26.442Z,22.81
2016-06-10T12:17:26.491Z,22.78
2016-06-10T12:18:26.510Z,22.72
2016-06-10T12:19:26.513Z,22.78
2016-06-10T12:20:26.579Z,22.91
2016-06-10T12:21:26.613Z,23.08
2016-06-10T12:22:26.616Z,22.91
2016-06-10T12:23:26.447Z,22.65
2016-06-10T12:24:26.639Z,22.35
2016-06-10T12:25:26.673Z,22.35
2016-06-10T12:26:26.675Z,22.3
2016-06-10T12:27:26.678Z,22.38
2016-06-10T12:28:26.557Z,22.43
2016-06-10T12:29:26.715Z,22.36
2016-06-10T12:30:26.766Z,22.35
2016-06-10T12:31:26.769Z,22.38
2016-06-10T12:32:26.802Z,22.55
2016-06-10T12:33:26.805Z,22.55
2016-06-10T12:34:26.872Z,22.57
2016-06-10T12:35:26.875Z,22.91
2016-06-10T12:36:26.878Z,23.03
2016-06-10T12:37:26.897Z,22.91
2016-06-10T12:38:26.931Z,22.91
2016-06-10T12:39:26.950Z,22.93
2016-06-10T12:40:26.968Z,22.91
2016-06-10T12:41:26.987Z,22.93
2016-06-10T12:42:27.271Z,22.81
2016-06-10T12:43:27.087Z,22.8
2016-06-10T12:44:27.044Z,22.75
2016-06-10T12:45:27.093Z,22.88
2016-06-10T12:46:27.096Z,23.05
2016-06-10T12:47:27.131Z,23.05
2016-06-10T12:48:27.134Z,23.05
2016-06-10T12:49:27.168Z,22.93
2016-06-10T12:50:27.187Z,22.78
2016-06-10T12:51:27.222Z,22.62
2016-06-10T12:52:27.099Z,22.48
2016-06-10T12:53:27.275Z,22.59
2016-06-10T12:54:27.277Z,22.78
2016-06-10T12:55:27.327Z,22.65